sensor_id;sensor_type;location;lat;lon;timestamp;pressure;altitude;pressure_sealevel;temperature;humidity
63405;BME280;49541;57.840;12.306;2023-03-14T00:03:37;96657.16;;;6.51;96.86
63405;BME280;49541;57.840;12.306;2023-03-14T00:08:38;96663.25;;;6.51;95.41
63405;BME280;49541;57.840;12.306;2023-03-14T00:13:38;96656.75;;;6.54;94.62
63405;BME280;49541;57.840;12.306;2023-03-14T00:18:39;96648.63;;;6.55;94.44
63405;BME280;49541;57.840;12.306;2023-03-14T00:23:40;96673.00;;;6.44;95.51
63405;BME280;49541;57.840;12.306;2023-03-14T00:28:41;96667.50;;;6.32;94.81
63405;BME280;49541;57.840;12.306;2023-03-14T00:33:41;96683.13;;;6.34;94.92
63405;BME280;49541;57.840;12.306;2023-03-14T00:38:42;96683.13;;;6.34;94.43
63405;BME280;49541;57.840;12.306;2023-03-14T00:43:43;96702.84;;;6.25;94.32
63405;BME280;49541;57.840;12.306;2023-03-14T00:48:44;96722.13;;;6.25;94.33
63405;BME280;49541;57.840;12.306;2023-03-14T00:53:45;96711.16;;;6.22;95.08
63405;BME280;49541;57.840;12.306;2023-03-14T00:58:45;96712.50;;;6.04;95.81
63405;BME280;49541;57.840;12.306;2023-03-14T01:03:45;96729.56;;;6.02;95.81
63405;BME280;49541;57.840;12.306;2023-03-14T01:08:46;96737.63;;;5.93;95.09
63405;BME280;49541;57.840;12.306;2023-03-14T01:13:46;96733.53;;;5.84;95.43
63405;BME280;49541;57.840;12.306;2023-03-14T01:18:47;96749.56;;;5.83;95.19
63405;BME280;49541;57.840;12.306;2023-03-14T01:23:47;96774.66;;;5.72;95.62
63405;BME280;49541;57.840;12.306;2023-03-14T01:28:49;96764.63;;;5.54;95.50
63405;BME280;49541;57.840;12.306;2023-03-14T01:33:49;96771.69;;;5.47;95.31
63405;BME280;49541;57.840;12.306;2023-03-14T01:38:49;96786.19;;;5.29;95.52
63405;BME280;49541;57.840;12.306;2023-03-14T01:43:50;96802.78;;;5.02;96.61
63405;BME280;49541;57.840;12.306;2023-03-14T01:53:50;96800.91;;;4.96;97.20
63405;BME280;49541;57.840;12.306;2023-03-14T01:58:53;96816.72;;;4.96;96.41
63405;BME280;49541;57.840;12.306;2023-03-14T02:03:54;96813.41;;;4.87;96.11
63405;BME280;49541;57.840;12.306;2023-03-14T02:08:55;96807.94;;;4.67;96.32
63405;BME280;49541;57.840;12.306;2023-03-14T02:13:57;96810.28;;;4.62;96.82
63405;BME280;49541;57.840;12.306;2023-03-14T02:18:57;96803.88;;;4.49;97.22
63405;BME280;49541;57.840;12.306;2023-03-14T02:29:10;96817.03;;;4.49;95.53
63405;BME280;49541;57.840;12.306;2023-03-14T02:34:10;96820.94;;;4.54;94.77
63405;BME280;49541;57.840;12.306;2023-03-14T02:39:15;96821.59;;;4.41;95.44
63405;BME280;49541;57.840;12.306;2023-03-14T02:44:18;96805.63;;;4.42;95.58
63405;BME280;49541;57.840;12.306;2023-03-14T02:49:18;96821.84;;;4.61;95.43
63405;BME280;49541;57.840;12.306;2023-03-14T02:54:18;96837.34;;;4.34;96.30
63405;BME280;49541;57.840;12.306;2023-03-14T02:59:19;96836.34;;;4.35;96.39
63405;BME280;49541;57.840;12.306;2023-03-14T03:04:19;96839.34;;;4.32;96.56
63405;BME280;49541;57.840;12.306;2023-03-14T03:09:20;96834.13;;;4.39;96.57
63405;BME280;49541;57.840;12.306;2023-03-14T03:14:20;96854.31;;;4.31;97.31
63405;BME280;49541;57.840;12.306;2023-03-14T03:19:20;96858.47;;;4.41;96.45
63405;BME280;49541;57.840;12.306;2023-03-14T03:24:20;96843.69;;;4.40;95.97
63405;BME280;49541;57.840;12.306;2023-03-14T03:29:21;96843.97;;;4.30;94.88
63405;BME280;49541;57.840;12.306;2023-03-14T03:34:21;96861.41;;;4.31;94.82
63405;BME280;49541;57.840;12.306;2023-03-14T03:39:21;96861.94;;;4.41;93.79
63405;BME280;49541;57.840;12.306;2023-03-14T03:44:21;96868.09;;;4.48;93.46
63405;BME280;49541;57.840;12.306;2023-03-14T03:49:21;96872.19;;;4.51;93.11
63405;BME280;49541;57.840;12.306;2023-03-14T03:54:22;96882.38;;;4.54;93.00
63405;BME280;49541;57.840;12.306;2023-03-14T03:59:22;96881.53;;;4.54;92.31
63405;BME280;49541;57.840;12.306;2023-03-14T04:04:22;96885.53;;;4.49;92.02
63405;BME280;49541;57.840;12.306;2023-03-14T04:09:23;96878.19;;;4.45;92.40
63405;BME280;49541;57.840;12.306;2023-03-14T04:14:23;96889.25;;;4.55;92.17
63405;BME280;49541;57.840;12.306;2023-03-14T04:19:23;96883.72;;;4.65;92.17
63405;BME280;49541;57.840;12.306;2023-03-14T04:24:23;96886.53;;;4.48;92.46
63405;BME280;49541;57.840;12.306;2023-03-14T04:29:24;96890.19;;;4.47;92.99
63405;BME280;49541;57.840;12.306;2023-03-14T04:34:24;96891.53;;;4.58;92.73
63405;BME280;49541;57.840;12.306;2023-03-14T04:39:24;96899.50;;;4.80;91.83
63405;BME280;49541;57.840;12.306;2023-03-14T04:44:24;96893.88;;;4.68;91.39
63405;BME280;49541;57.840;12.306;2023-03-14T04:49:24;96897.41;;;4.60;91.85
63405;BME280;49541;57.840;12.306;2023-03-14T04:54:25;96904.97;;;4.48;91.70
63405;BME280;49541;57.840;12.306;2023-03-14T04:59:25;96919.16;;;4.33;92.47
63405;BME280;49541;57.840;12.306;2023-03-14T05:04:25;96938.13;;;4.28;93.27
63405;BME280;49541;57.840;12.306;2023-03-14T05:09:25;96930.97;;;4.22;93.37
63405;BME280;49541;57.840;12.306;2023-03-14T05:14:26;96941.41;;;4.15;94.14
63405;BME280;49541;57.840;12.306;2023-03-14T05:19:26;96938.22;;;4.20;92.99
63405;BME280;49541;57.840;12.306;2023-03-14T05:24:26;96955.09;;;4.10;94.06
63405;BME280;49541;57.840;12.306;2023-03-14T05:29:26;96942.69;;;4.04;93.28
63405;BME280;49541;57.840;12.306;2023-03-14T05:34:27;96947.75;;;4.06;93.46
63405;BME280;49541;57.840;12.306;2023-03-14T05:39:27;96951.47;;;4.12;92.35
63405;BME280;49541;57.840;12.306;2023-03-14T05:44:27;96958.25;;;3.91;93.80
63405;BME280;49541;57.840;12.306;2023-03-14T05:49:27;96960.53;;;3.94;93.90
63405;BME280;49541;57.840;12.306;2023-03-14T05:54:27;96959.88;;;3.92;93.62
63405;BME280;49541;57.840;12.306;2023-03-14T05:59:27;96961.72;;;4.06;93.42
63405;BME280;49541;57.840;12.306;2023-03-14T06:04:28;96961.53;;;4.08;93.75
63405;BME280;49541;57.840;12.306;2023-03-14T06:09:28;96974.16;;;4.13;92.99
63405;BME280;49541;57.840;12.306;2023-03-14T06:14:28;96982.88;;;4.28;92.61
63405;BME280;49541;57.840;12.306;2023-03-14T06:19:28;96983.91;;;4.27;92.88
63405;BME280;49541;57.840;12.306;2023-03-14T06:24:29;96987.19;;;4.44;92.50
63405;BME280;49541;57.840;12.306;2023-03-14T06:29:29;96994.78;;;4.39;92.35
63405;BME280;49541;57.840;12.306;2023-03-14T06:34:29;96998.19;;;4.47;92.21
63405;BME280;49541;57.840;12.306;2023-03-14T06:39:29;96993.97;;;4.38;92.46
63405;BME280;49541;57.840;12.306;2023-03-14T06:44:31;96998.88;;;4.71;91.23
63405;BME280;49541;57.840;12.306;2023-03-14T06:49:31;97011.06;;;4.72;90.25
63405;BME280;49541;57.840;12.306;2023-03-14T06:54:31;97015.25;;;4.66;90.57
63405;BME280;49541;57.840;12.306;2023-03-14T06:59:31;97032.78;;;4.59;90.80
63405;BME280;49541;57.840;12.306;2023-03-14T07:04:31;97026.94;;;4.49;92.06
63405;BME280;49541;57.840;12.306;2023-03-14T07:09:32;97037.56;;;4.41;91.91
63405;BME280;49541;57.840;12.306;2023-03-14T07:14:33;97034.69;;;4.50;91.84
63405;BME280;49541;57.840;12.306;2023-03-14T07:19:33;97036.31;;;4.51;92.03
63405;BME280;49541;57.840;12.306;2023-03-14T07:24:33;97044.06;;;4.83;90.56
63405;BME280;49541;57.840;12.306;2023-03-14T07:29:33;97047.41;;;4.62;90.92
63405;BME280;49541;57.840;12.306;2023-03-14T07:34:33;97057.13;;;4.61;90.84
63405;BME280;49541;57.840;12.306;2023-03-14T07:39:34;97060.50;;;4.17;92.02
63405;BME280;49541;57.840;12.306;2023-03-14T07:44:34;97062.00;;;4.35;91.24
63405;BME280;49541;57.840;12.306;2023-03-14T07:49:34;97079.81;;;4.09;92.11
63405;BME280;49541;57.840;12.306;2023-03-14T07:54:34;97075.84;;;3.90;92.18
63405;BME280;49541;57.840;12.306;2023-03-14T07:59:34;97066.84;;;4.08;93.42
63405;BME280;49541;57.840;12.306;2023-03-14T08:04:35;97065.47;;;4.12;92.67
63405;BME280;49541;57.840;12.306;2023-03-14T08:09:35;97093.13;;;4.31;91.87
63405;BME280;49541;57.840;12.306;2023-03-14T08:14:35;97089.59;;;4.24;91.21
63405;BME280;49541;57.840;12.306;2023-03-14T08:19:35;97091.03;;;4.26;91.12
63405;BME280;49541;57.840;12.306;2023-03-14T08:24:35;97097.25;;;4.48;91.41
63405;BME280;49541;57.840;12.306;2023-03-14T08:29:35;97119.47;;;4.69;90.99
63405;BME280;49541;57.840;12.306;2023-03-14T08:34:36;97109.22;;;4.74;90.44
63405;BME280;49541;57.840;12.306;2023-03-14T08:39:36;97108.16;;;4.60;90.34
63405;BME280;49541;57.840;12.306;2023-03-14T08:44:36;97107.34;;;4.60;90.33
63405;BME280;49541;57.840;12.306;2023-03-14T08:49:37;97116.19;;;5.26;89.42
63405;BME280;49541;57.840;12.306;2023-03-14T08:54:38;97119.22;;;4.93;87.63
63405;BME280;49541;57.840;12.306;2023-03-14T08:59:38;97140.41;;;5.00;88.17
63405;BME280;49541;57.840;12.306;2023-03-14T09:04:38;97144.56;;;5.24;86.83
63405;BME280;49541;57.840;12.306;2023-03-14T09:09:39;97135.28;;;5.43;85.64
63405;BME280;49541;57.840;12.306;2023-03-14T09:14:39;97134.97;;;5.17;85.74
63405;BME280;49541;57.840;12.306;2023-03-14T09:19:39;97155.69;;;5.34;85.19
63405;BME280;49541;57.840;12.306;2023-03-14T09:24:40;97160.22;;;5.41;84.62
63405;BME280;49541;57.840;12.306;2023-03-14T09:29:40;97157.94;;;5.38;83.75
63405;BME280;49541;57.840;12.306;2023-03-14T09:34:40;97158.13;;;5.51;81.19
63405;BME280;49541;57.840;12.306;2023-03-14T09:39:41;97162.94;;;5.47;81.98
63405;BME280;49541;57.840;12.306;2023-03-14T09:44:43;97182.91;;;5.86;80.64
63405;BME280;49541;57.840;12.306;2023-03-14T09:49:45;97183.25;;;5.47;80.92
63405;BME280;49541;57.840;12.306;2023-03-14T09:54:50;97196.16;;;5.42;78.79
63405;BME280;49541;57.840;12.306;2023-03-14T09:59:53;97205.50;;;5.59;78.65
63405;BME280;49541;57.840;12.306;2023-03-14T10:04:55;97200.78;;;5.10;74.67
63405;BME280;49541;57.840;12.306;2023-03-14T10:09:55;97212.59;;;4.99;74.50
63405;BME280;49541;57.840;12.306;2023-03-14T10:14:55;97211.97;;;5.12;74.36
63405;BME280;49541;57.840;12.306;2023-03-14T10:19:57;97230.34;;;5.50;74.60
63405;BME280;49541;57.840;12.306;2023-03-14T10:25:02;97239.94;;;5.66;72.37
63405;BME280;49541;57.840;12.306;2023-03-14T10:30:04;97250.72;;;5.86;72.11
63405;BME280;49541;57.840;12.306;2023-03-14T10:40:05;97278.50;;;5.14;71.42
63405;BME280;49541;57.840;12.306;2023-03-14T10:45:06;97277.84;;;5.50;70.64
63405;BME280;49541;57.840;12.306;2023-03-14T10:55:25;97279.50;;;5.51;70.78
63405;BME280;49541;57.840;12.306;2023-03-14T11:00:28;97289.78;;;5.61;70.29
63405;BME280;49541;57.840;12.306;2023-03-14T11:05:50;97304.63;;;6.06;70.46
63405;BME280;49541;57.840;12.306;2023-03-14T11:10:54;97320.00;;;5.58;69.37
63405;BME280;49541;57.840;12.306;2023-03-14T11:16:19;97314.47;;;5.98;68.87
63405;BME280;49541;57.840;12.306;2023-03-14T11:31:47;97344.63;;;6.18;68.84
63405;BME280;49541;57.840;12.306;2023-03-14T11:36:51;97356.72;;;6.12;69.76
63405;BME280;49541;57.840;12.306;2023-03-14T11:41:53;97379.06;;;5.87;70.94
63405;BME280;49541;57.840;12.306;2023-03-14T11:46:56;97388.47;;;5.89;70.80
63405;BME280;49541;57.840;12.306;2023-03-14T11:52:01;97401.56;;;5.68;72.09
63405;BME280;49541;57.840;12.306;2023-03-14T11:57:03;97410.97;;;5.24;72.84
63405;BME280;49541;57.840;12.306;2023-03-14T12:07:26;97436.03;;;5.66;69.33
63405;BME280;49541;57.840;12.306;2023-03-14T12:12:28;97446.91;;;5.25;69.95
63405;BME280;49541;57.840;12.306;2023-03-14T12:22:36;97449.78;;;4.84;70.29
63405;BME280;49541;57.840;12.306;2023-03-14T12:38:13;97504.25;;;5.31;70.20
63405;BME280;49541;57.840;12.306;2023-03-14T12:43:24;97512.22;;;5.15;72.29
63405;BME280;49541;57.840;12.306;2023-03-14T12:48:24;97513.09;;;5.39;73.71
63405;BME280;49541;57.840;12.306;2023-03-14T12:58:43;97524.47;;;6.61;64.07
63405;BME280;49541;57.840;12.306;2023-03-14T13:03:47;97529.09;;;5.60;66.35
63405;BME280;49541;57.840;12.306;2023-03-14T13:08:50;97540.88;;;5.18;67.20
63405;BME280;49541;57.840;12.306;2023-03-14T13:13:56;97543.94;;;4.99;66.33
63405;BME280;49541;57.840;12.306;2023-03-14T13:19:01;97551.19;;;4.97;65.83
63405;BME280;49541;57.840;12.306;2023-03-14T13:24:04;97563.59;;;5.27;66.15
63405;BME280;49541;57.840;12.306;2023-03-14T13:29:08;97569.97;;;5.02;64.31
63405;BME280;49541;57.840;12.306;2023-03-14T13:34:09;97586.34;;;4.89;65.52
63405;BME280;49541;57.840;12.306;2023-03-14T13:39:14;97600.50;;;4.88;66.60
63405;BME280;49541;57.840;12.306;2023-03-14T13:44:25;97609.53;;;4.93;65.79
63405;BME280;49541;57.840;12.306;2023-03-14T13:49:26;97617.09;;;5.05;64.42
63405;BME280;49541;57.840;12.306;2023-03-14T13:54:29;97640.59;;;4.50;65.20
63405;BME280;49541;57.840;12.306;2023-03-14T13:59:34;97653.59;;;4.52;63.81
63405;BME280;49541;57.840;12.306;2023-03-14T14:04:35;97644.66;;;4.86;64.04
63405;BME280;49541;57.840;12.306;2023-03-14T14:09:37;97669.88;;;4.56;63.92
63405;BME280;49541;57.840;12.306;2023-03-14T14:14:39;97691.81;;;4.48;62.65
63405;BME280;49541;57.840;12.306;2023-03-14T14:19:40;97704.16;;;4.80;61.04
63405;BME280;49541;57.840;12.306;2023-03-14T14:24:41;97712.56;;;4.67;57.65
63405;BME280;49541;57.840;12.306;2023-03-14T14:29:41;97716.50;;;5.52;56.52
63405;BME280;49541;57.840;12.306;2023-03-14T14:34:55;97739.13;;;5.94;54.12
63405;BME280;49541;57.840;12.306;2023-03-14T14:39:56;97746.00;;;6.11;54.13
63405;BME280;49541;57.840;12.306;2023-03-14T14:44:57;97755.38;;;6.14;54.97
63405;BME280;49541;57.840;12.306;2023-03-14T14:49:59;97757.16;;;5.18;59.15
63405;BME280;49541;57.840;12.306;2023-03-14T14:55:00;97762.97;;;4.89;60.95
63405;BME280;49541;57.840;12.306;2023-03-14T15:00:03;97761.25;;;4.30;63.44
63405;BME280;49541;57.840;12.306;2023-03-14T15:05:11;97779.03;;;4.28;64.12
63405;BME280;49541;57.840;12.306;2023-03-14T15:10:13;97791.19;;;4.13;63.99
63405;BME280;49541;57.840;12.306;2023-03-14T15:15:14;97817.28;;;4.06;65.38
63405;BME280;49541;57.840;12.306;2023-03-14T15:20:15;97817.72;;;4.36;64.07
63405;BME280;49541;57.840;12.306;2023-03-14T15:25:16;97834.38;;;4.37;63.48
63405;BME280;49541;57.840;12.306;2023-03-14T15:30:16;97842.63;;;4.50;61.44
63405;BME280;49541;57.840;12.306;2023-03-14T15:35:17;97855.31;;;4.46;60.75
63405;BME280;49541;57.840;12.306;2023-03-14T15:40:17;97874.06;;;4.51;61.69
63405;BME280;49541;57.840;12.306;2023-03-14T15:45:18;97885.75;;;5.24;59.71
63405;BME280;49541;57.840;12.306;2023-03-14T15:50:18;97897.88;;;6.07;55.01
63405;BME280;49541;57.840;12.306;2023-03-14T15:55:19;97899.97;;;6.68;52.02
63405;BME280;49541;57.840;12.306;2023-03-14T16:00:19;97904.19;;;5.82;52.55
63405;BME280;49541;57.840;12.306;2023-03-14T16:05:21;97916.59;;;4.57;55.87
63405;BME280;49541;57.840;12.306;2023-03-14T16:10:21;97933.94;;;4.67;57.58
63405;BME280;49541;57.840;12.306;2023-03-14T16:15:22;97933.06;;;3.90;59.37
63405;BME280;49541;57.840;12.306;2023-03-14T16:20:22;97958.75;;;3.52;60.75
63405;BME280;49541;57.840;12.306;2023-03-14T16:25:23;97975.59;;;3.41;60.76
63405;BME280;49541;57.840;12.306;2023-03-14T16:30:23;97982.59;;;3.33;59.85
63405;BME280;49541;57.840;12.306;2023-03-14T16:35:23;98003.84;;;3.21;59.00
63405;BME280;49541;57.840;12.306;2023-03-14T16:40:23;98007.88;;;2.98;58.67
63405;BME280;49541;57.840;12.306;2023-03-14T16:45:23;98033.38;;;3.33;58.36
63405;BME280;49541;57.840;12.306;2023-03-14T16:50:24;98048.66;;;3.02;58.39
63405;BME280;49541;57.840;12.306;2023-03-14T16:55:24;98058.94;;;3.23;58.38
63405;BME280;49541;57.840;12.306;2023-03-14T17:00:24;98074.75;;;3.13;58.61
63405;BME280;49541;57.840;12.306;2023-03-14T17:05:24;98091.09;;;3.07;58.73
63405;BME280;49541;57.840;12.306;2023-03-14T17:10:25;98109.50;;;3.07;59.24
63405;BME280;49541;57.840;12.306;2023-03-14T17:15:25;98120.31;;;3.04;58.83
63405;BME280;49541;57.840;12.306;2023-03-14T17:20:25;98131.91;;;3.11;58.45
63405;BME280;49541;57.840;12.306;2023-03-14T17:25:25;98140.53;;;3.03;59.25
63405;BME280;49541;57.840;12.306;2023-03-14T17:30:25;98148.59;;;2.92;59.33
63405;BME280;49541;57.840;12.306;2023-03-14T17:35:25;98175.34;;;3.15;58.62
63405;BME280;49541;57.840;12.306;2023-03-14T17:40:26;98181.97;;;2.72;59.93
63405;BME280;49541;57.840;12.306;2023-03-14T17:45:26;98197.59;;;2.64;60.13
63405;BME280;49541;57.840;12.306;2023-03-14T17:50:26;98213.38;;;2.64;59.67
63405;BME280;49541;57.840;12.306;2023-03-14T17:55:26;98232.28;;;2.77;59.14
63405;BME280;49541;57.840;12.306;2023-03-14T18:00:26;98244.34;;;2.70;58.85
63405;BME280;49541;57.840;12.306;2023-03-14T18:05:27;98251.25;;;2.91;58.67
63405;BME280;49541;57.840;12.306;2023-03-14T18:10:27;98267.72;;;2.54;59.92
63405;BME280;49541;57.840;12.306;2023-03-14T18:15:27;98275.59;;;2.44;60.07
63405;BME280;49541;57.840;12.306;2023-03-14T18:20:27;98298.00;;;2.58;59.65
63405;BME280;49541;57.840;12.306;2023-03-14T18:25:28;98300.22;;;2.53;60.18
63405;BME280;49541;57.840;12.306;2023-03-14T18:30:28;98313.91;;;2.66;60.13
63405;BME280;49541;57.840;12.306;2023-03-14T18:35:28;98323.16;;;2.51;60.79
63405;BME280;49541;57.840;12.306;2023-03-14T18:40:28;98329.66;;;2.85;59.63
63405;BME280;49541;57.840;12.306;2023-03-14T18:45:29;98343.88;;;2.54;61.36
63405;BME280;49541;57.840;12.306;2023-03-14T18:50:29;98355.75;;;2.29;62.69
63405;BME280;49541;57.840;12.306;2023-03-14T18:55:30;98372.78;;;2.03;64.00
63405;BME280;49541;57.840;12.306;2023-03-14T19:00:30;98381.03;;;2.20;63.75
63405;BME280;49541;57.840;12.306;2023-03-14T19:05:31;98386.75;;;2.44;62.88
63405;BME280;49541;57.840;12.306;2023-03-14T19:10:31;98391.78;;;2.77;61.52
63405;BME280;49541;57.840;12.306;2023-03-14T19:15:33;98398.44;;;2.71;61.53
63405;BME280;49541;57.840;12.306;2023-03-14T19:20:33;98407.09;;;2.62;61.94
63405;BME280;49541;57.840;12.306;2023-03-14T19:25:33;98416.91;;;2.10;64.58
63405;BME280;49541;57.840;12.306;2023-03-14T19:30:33;98417.50;;;2.23;64.16
63405;BME280;49541;57.840;12.306;2023-03-14T19:35:34;98426.59;;;2.19;64.04
63405;BME280;49541;57.840;12.306;2023-03-14T19:40:34;98439.91;;;1.96;64.70
63405;BME280;49541;57.840;12.306;2023-03-14T19:45:36;98444.56;;;1.93;64.36
63405;BME280;49541;57.840;12.306;2023-03-14T19:50:36;98448.19;;;1.71;64.66
63405;BME280;49541;57.840;12.306;2023-03-14T19:55:36;98457.97;;;1.69;64.67
63405;BME280;49541;57.840;12.306;2023-03-14T20:00:37;98467.97;;;1.75;64.39
63405;BME280;49541;57.840;12.306;2023-03-14T20:05:38;98477.81;;;1.61;64.47
63405;BME280;49541;57.840;12.306;2023-03-14T20:10:38;98492.28;;;1.56;64.63
63405;BME280;49541;57.840;12.306;2023-03-14T20:15:39;98496.53;;;1.57;64.29
63405;BME280;49541;57.840;12.306;2023-03-14T20:20:40;98505.94;;;1.38;64.38
63405;BME280;49541;57.840;12.306;2023-03-14T20:25:40;98510.75;;;1.22;64.51
63405;BME280;49541;57.840;12.306;2023-03-14T20:30:41;98515.31;;;1.09;64.60
63405;BME280;49541;57.840;12.306;2023-03-14T20:35:42;98530.69;;;1.02;64.96
63405;BME280;49541;57.840;12.306;2023-03-14T20:40:44;98534.75;;;1.06;64.81
63405;BME280;49541;57.840;12.306;2023-03-14T20:45:49;98541.19;;;1.02;64.87
63405;BME280;49541;57.840;12.306;2023-03-14T20:50:54;98554.97;;;1.15;64.43
63405;BME280;49541;57.840;12.306;2023-03-14T20:55:55;98558.53;;;1.26;64.62
63405;BME280;49541;57.840;12.306;2023-03-14T21:00:56;98554.06;;;0.82;65.55
63405;BME280;49541;57.840;12.306;2023-03-14T21:05:56;98565.03;;;0.65;66.07
63405;BME280;49541;57.840;12.306;2023-03-14T21:10:57;98569.19;;;0.34;67.49
63405;BME280;49541;57.840;12.306;2023-03-14T21:15:58;98577.91;;;0.46;66.93
63405;BME280;49541;57.840;12.306;2023-03-14T21:20:59;98577.91;;;0.46;66.48
63405;BME280;49541;57.840;12.306;2023-03-14T21:25:59;98585.50;;;0.49;66.19
63405;BME280;49541;57.840;12.306;2023-03-14T21:31:06;98581.88;;;0.16;66.90
63405;BME280;49541;57.840;12.306;2023-03-14T21:36:08;98588.66;;;0.07;67.15
63405;BME280;49541;57.840;12.306;2023-03-14T21:41:08;98596.69;;;-0.07;67.32
63405;BME280;49541;57.840;12.306;2023-03-14T21:46:09;98596.56;;;-0.06;67.00
63405;BME280;49541;57.840;12.306;2023-03-14T21:51:09;98603.22;;;-0.13;67.21
63405;BME280;49541;57.840;12.306;2023-03-14T21:56:09;98608.97;;;0.04;67.59
63405;BME280;49541;57.840;12.306;2023-03-14T22:01:09;98615.97;;;-0.08;67.74
63405;BME280;49541;57.840;12.306;2023-03-14T22:06:09;98615.22;;;0.36;67.20
63405;BME280;49541;57.840;12.306;2023-03-14T22:11:10;98623.47;;;-0.04;68.36
63405;BME280;49541;57.840;12.306;2023-03-14T22:16:10;98628.94;;;-0.31;68.97
63405;BME280;49541;57.840;12.306;2023-03-14T22:21:10;98626.66;;;-0.35;69.63
63405;BME280;49541;57.840;12.306;2023-03-14T22:26:10;98634.69;;;-0.26;68.80
63405;BME280;49541;57.840;12.306;2023-03-14T22:31:10;98631.78;;;-0.58;69.15
63405;BME280;49541;57.840;12.306;2023-03-14T22:36:11;98635.03;;;-0.67;68.82
63405;BME280;49541;57.840;12.306;2023-03-14T22:41:11;98638.28;;;-0.76;68.32
63405;BME280;49541;57.840;12.306;2023-03-14T22:46:11;98651.41;;;-1.02;68.95
63405;BME280;49541;57.840;12.306;2023-03-14T22:51:12;98656.00;;;-0.93;69.24
63405;BME280;49541;57.840;12.306;2023-03-14T22:56:12;98646.78;;;-0.73;68.73
63405;BME280;49541;57.840;12.306;2023-03-14T23:01:13;98662.72;;;-0.28;68.96
63405;BME280;49541;57.840;12.306;2023-03-14T23:06:13;98656.78;;;0.06;68.38
63405;BME280;49541;57.840;12.306;2023-03-14T23:11:13;98663.84;;;-0.19;68.59
63405;BME280;49541;57.840;12.306;2023-03-14T23:16:13;98676.41;;;-0.61;70.79
63405;BME280;49541;57.840;12.306;2023-03-14T23:21:18;98669.59;;;-0.88;72.60
63405;BME280;49541;57.840;12.306;2023-03-14T23:26:22;98684.31;;;-0.87;73.04
63405;BME280;49541;57.840;12.306;2023-03-14T23:31:23;98698.00;;;-0.96;73.63
63405;BME280;49541;57.840;12.306;2023-03-14T23:36:24;98703.16;;;-0.94;72.52
63405;BME280;49541;57.840;12.306;2023-03-14T23:41:24;98710.31;;;-1.62;74.86
63405;BME280;49541;57.840;12.306;2023-03-14T23:46:25;98717.66;;;-1.81;76.76
63405;BME280;49541;57.840;12.306;2023-03-14T23:51:25;98719.44;;;-1.82;76.99
63405;BME280;49541;57.840;12.306;2023-03-14T23:56:25;98738.13;;;-1.48;75.92
